createdAt,value
2018-10-05T00:02:24.929Z,37.53
2018-10-05T00:04:54.094Z,29.73
2018-10-05T00:07:23.362Z,40.57
2018-10-05T00:09:52.496Z,28.63
2018-10-05T00:12:21.635Z,24.30
2018-10-05T00:14:50.803Z,50.73
2018-10-05T00:17:19.948Z,19.23
2018-10-05T00:19:49.578Z,22.93
2018-10-05T00:22:18.868Z,29.53
2018-10-05T00:24:48.034Z,27.80
2018-10-05T00:27:17.215Z,23.70
2018-10-05T00:29:46.434Z,19.67
2018-10-05T00:32:15.650Z,21.83
2018-10-05T00:34:44.804Z,20.20
2018-10-05T00:37:14.004Z,26.70
2018-10-05T00:39:43.194Z,18.70
2018-10-05T00:42:12.300Z,28.87
2018-10-05T00:44:41.445Z,21.50
2018-10-05T00:47:10.663Z,22.10
2018-10-05T00:49:39.796Z,21.80
2018-10-05T00:52:09.036Z,26.40
2018-10-05T00:54:38.193Z,21.93
2018-10-05T00:57:07.603Z,21.73
2018-10-05T00:59:36.741Z,30.97
2018-10-05T01:02:05.918Z,24.10
2018-10-05T01:04:35.047Z,25.80
2018-10-05T01:07:04.253Z,19.93
2018-10-05T01:09:33.377Z,25.93
2018-10-05T01:12:02.507Z,27.80
2018-10-05T01:14:31.682Z,24.23
2018-10-05T01:17:00.827Z,28.23
2018-10-05T01:19:29.948Z,24.13
2018-10-05T01:21:59.330Z,33.67
2018-10-05T01:24:28.463Z,29.90
2018-10-05T01:26:57.588Z,24.73
2018-10-05T01:29:26.750Z,22.60
2018-10-05T01:31:56.090Z,26.77
2018-10-05T01:34:25.248Z,27.40
2018-10-05T01:36:54.386Z,25.37
2018-10-05T01:39:23.553Z,22.83
2018-10-05T01:41:52.808Z,26.80
2018-10-05T01:44:21.991Z,25.23
2018-10-05T01:46:51.180Z,25.90
2018-10-05T01:49:20.394Z,24.10
2018-10-05T01:51:49.536Z,33.30
2018-10-05T01:54:18.686Z,23.90
2018-10-05T01:56:48.016Z,28.83
2018-10-05T01:59:17.203Z,29.50
2018-10-05T02:01:46.329Z,26.03
2018-10-05T02:04:15.462Z,22.43
2018-10-05T02:06:44.614Z,30.87
2018-10-05T02:09:14.523Z,26.57
2018-10-05T02:11:43.665Z,29.47
2018-10-05T02:14:12.814Z,29.60
2018-10-05T02:16:42.722Z,21.90
2018-10-05T02:19:12.342Z,29.80
2018-10-05T02:21:41.509Z,28.93
2018-10-05T02:24:10.632Z,21.73
2018-10-05T02:26:40.108Z,23.70
2018-10-05T02:29:09.610Z,22.63
2018-10-05T02:31:39.708Z,31.90
2018-10-05T02:34:08.847Z,31.23
2018-10-05T02:36:38.073Z,23.93
2018-10-05T02:39:10.366Z,22.90
2018-10-05T02:41:39.616Z,27.03
2018-10-05T02:44:08.721Z,27.43
2018-10-05T02:46:37.853Z,27.37
2018-10-05T02:49:07.271Z,37.63
2018-10-05T02:51:36.481Z,23.93
2018-10-05T02:54:05.606Z,27.00
2018-10-05T02:56:34.760Z,28.40
2018-10-05T02:59:03.937Z,23.17
2018-10-05T03:01:44.161Z,27.73
2018-10-05T03:04:13.389Z,22.87
2018-10-05T03:06:42.518Z,30.10
2018-10-05T03:09:11.694Z,26.07
2018-10-05T03:11:40.826Z,25.20
2018-10-05T03:14:09.949Z,38.43
2018-10-05T03:16:39.248Z,31.80
2018-10-05T03:19:08.582Z,32.27
2018-10-05T03:21:37.773Z,36.43
2018-10-05T03:24:06.930Z,20.80
2018-10-05T03:26:36.095Z,32.07
2018-10-05T03:29:05.281Z,21.77
2018-10-05T03:31:34.515Z,33.90
2018-10-05T03:34:03.670Z,24.70
2018-10-05T03:36:32.798Z,26.53
2018-10-05T03:39:01.952Z,30.23
2018-10-05T03:41:31.129Z,26.00
2018-10-05T03:44:00.305Z,20.50
2018-10-05T03:46:29.642Z,22.53
2018-10-05T03:48:58.767Z,32.40
2018-10-05T03:51:27.898Z,22.73
2018-10-05T03:53:57.067Z,23.80
2018-10-05T03:56:26.264Z,21.90
2018-10-05T03:58:55.389Z,26.57
2018-10-05T04:01:24.577Z,31.20
2018-10-05T04:03:53.702Z,30.13
2018-10-05T04:06:23.441Z,20.20
2018-10-05T04:08:52.630Z,29.23
2018-10-05T04:11:21.778Z,24.83
2018-10-05T04:13:50.928Z,24.23
2018-10-05T04:16:20.097Z,39.73
2018-10-05T04:18:49.230Z,21.47
2018-10-05T04:21:18.353Z,23.70
2018-10-05T04:23:47.512Z,23.07
2018-10-05T04:26:16.649Z,22.23
2018-10-05T04:28:45.824Z,31.43
2018-10-05T04:31:14.997Z,21.27
2018-10-05T04:33:44.212Z,40.33
2018-10-05T04:36:13.415Z,34.53
2018-10-05T04:38:42.559Z,38.33
2018-10-05T04:41:11.745Z,40.43
2018-10-05T04:43:40.888Z,24.37
2018-10-05T04:46:10.095Z,31.20
2018-10-05T04:48:39.245Z,27.27
2018-10-05T04:51:08.544Z,23.00
2018-10-05T04:53:37.813Z,30.33
2018-10-05T04:56:06.966Z,26.80
2018-10-05T04:58:36.120Z,20.37
2018-10-05T05:01:05.291Z,38.83
2018-10-05T05:03:34.463Z,28.83
2018-10-05T05:06:03.658Z,23.70
2018-10-05T05:08:32.805Z,28.13
2018-10-05T05:11:02.452Z,30.03
2018-10-05T05:13:31.583Z,32.13
2018-10-05T05:16:00.830Z,47.90
2018-10-05T05:18:30.048Z,29.47
2018-10-05T05:20:59.184Z,31.00
2018-10-05T05:23:28.334Z,34.73
2018-10-05T05:25:57.531Z,31.57
2018-10-05T05:28:26.699Z,28.50
2018-10-05T05:30:55.834Z,28.53
2018-10-05T05:33:25.148Z,27.83
2018-10-05T05:35:54.454Z,29.03
2018-10-05T05:38:23.616Z,24.90
2018-10-05T05:40:52.865Z,37.20
2018-10-05T05:43:22.030Z,24.83
2018-10-05T05:45:51.172Z,39.63
2018-10-05T05:48:20.336Z,40.27
2018-10-05T05:50:49.475Z,24.40
2018-10-05T05:53:18.697Z,30.83
2018-10-05T05:55:47.847Z,19.00
2018-10-05T05:58:16.998Z,17.83
2018-10-05T06:00:46.265Z,16.50
2018-10-05T06:03:15.415Z,21.63
2018-10-05T06:05:44.533Z,19.83
2018-10-05T06:08:14.082Z,17.60
2018-10-05T06:10:43.197Z,17.17
2018-10-05T06:13:12.365Z,25.83
2018-10-05T06:15:44.525Z,23.80
2018-10-05T06:18:13.694Z,24.37
2018-10-05T06:20:42.850Z,26.33
2018-10-05T06:23:11.996Z,15.97
2018-10-05T06:25:41.395Z,22.90
2018-10-05T06:28:10.845Z,14.87
2018-10-05T06:30:40.293Z,25.10
2018-10-05T06:33:09.592Z,18.40
2018-10-05T06:35:38.727Z,37.77
2018-10-05T06:38:07.884Z,20.97
2018-10-05T06:40:37.071Z,21.70
2018-10-05T06:43:06.621Z,14.47
2018-10-05T06:45:35.897Z,17.33
2018-10-05T06:48:05.101Z,31.57
2018-10-05T06:50:34.247Z,24.50
2018-10-05T06:53:03.437Z,22.53
2018-10-05T06:55:32.616Z,18.40
2018-10-05T06:58:01.781Z,22.03
2018-10-05T07:00:30.962Z,14.97
2018-10-05T07:03:00.118Z,14.80
2018-10-05T07:05:29.293Z,19.27
2018-10-05T07:07:58.510Z,14.83
2018-10-05T07:10:27.649Z,35.93
2018-10-05T07:12:56.797Z,21.73
2018-10-05T07:15:26.072Z,29.83
2018-10-05T07:17:55.197Z,24.83
2018-10-05T07:20:24.341Z,20.63
2018-10-05T07:22:53.537Z,21.63
2018-10-05T07:25:22.737Z,24.10
2018-10-05T07:27:51.898Z,31.03
2018-10-05T07:30:21.088Z,24.47
2018-10-05T07:32:50.277Z,21.80
2018-10-05T07:35:19.441Z,25.33
2018-10-05T07:37:48.657Z,19.20
2018-10-05T07:40:17.838Z,19.13
2018-10-05T07:42:47.012Z,17.37
2018-10-05T07:45:16.203Z,26.20
2018-10-05T07:47:45.969Z,18.33
2018-10-05T07:50:15.137Z,17.30
2018-10-05T07:52:44.418Z,29.33
2018-10-05T07:55:13.614Z,17.03
2018-10-05T07:57:42.858Z,22.03
2018-10-05T08:00:12.821Z,15.40
2018-10-05T08:02:42.393Z,25.20
2018-10-05T08:05:11.819Z,28.93
2018-10-05T08:07:41.813Z,29.97
2018-10-05T08:10:10.985Z,22.63
2018-10-05T08:12:40.188Z,25.43
2018-10-05T08:15:10.887Z,15.73
2018-10-05T08:17:40.156Z,26.83
2018-10-05T08:20:09.331Z,19.60
2018-10-05T08:22:38.531Z,19.60
2018-10-05T08:25:07.921Z,18.03
2018-10-05T08:27:37.149Z,18.87
2018-10-05T08:30:06.936Z,18.50
2018-10-05T08:32:36.132Z,23.40
2018-10-05T08:35:05.405Z,15.50
2018-10-05T08:37:34.585Z,16.00
2018-10-05T08:40:03.762Z,20.93
2018-10-05T08:42:32.988Z,22.53
2018-10-05T08:45:02.138Z,19.70
2018-10-05T08:47:31.341Z,30.30
2018-10-05T08:50:01.702Z,22.53
2018-10-05T08:52:31.174Z,21.70
2018-10-05T08:55:00.461Z,16.37
2018-10-05T08:57:29.809Z,17.30
2018-10-05T08:59:59.011Z,22.43
2018-10-05T09:02:28.171Z,20.30
2018-10-05T09:04:57.322Z,21.50
2018-10-05T09:07:26.514Z,23.40
2018-10-05T09:09:55.696Z,30.63
2018-10-05T09:12:24.809Z,16.70
2018-10-05T09:14:53.986Z,17.30
2018-10-05T09:17:23.130Z,21.00
2018-10-05T09:19:52.250Z,17.93
2018-10-05T09:22:21.450Z,16.67
2018-10-05T09:24:50.773Z,22.30
2018-10-05T09:27:19.941Z,17.40
2018-10-05T09:29:50.002Z,21.33
2018-10-05T09:32:19.540Z,23.90
2018-10-05T09:34:48.712Z,27.53
2018-10-05T09:37:17.924Z,19.83
2018-10-05T09:39:47.063Z,23.37
2018-10-05T09:42:16.258Z,18.87
2018-10-05T09:44:45.420Z,21.17
2018-10-05T09:47:14.622Z,29.10
2018-10-05T09:49:43.775Z,14.83
2018-10-05T09:52:13.007Z,23.93
2018-10-05T09:54:42.125Z,20.53
2018-10-05T09:57:11.285Z,32.40
2018-10-05T09:59:40.525Z,21.43
2018-10-05T10:02:14.871Z,20.47
2018-10-05T10:04:44.042Z,19.77
2018-10-05T10:07:13.229Z,25.67
2018-10-05T10:09:42.377Z,35.57
2018-10-05T10:12:11.541Z,25.83
2018-10-05T10:14:40.730Z,18.37
2018-10-05T10:17:09.943Z,19.10
2018-10-05T10:19:39.130Z,21.27
2018-10-05T10:22:08.418Z,22.67
2018-10-05T10:24:37.553Z,21.77
2018-10-05T10:27:06.981Z,24.80
2018-10-05T10:29:36.148Z,19.30
2018-10-05T10:32:05.339Z,21.93
2018-10-05T10:34:34.532Z,18.53
2018-10-05T10:37:03.663Z,20.80
2018-10-05T10:39:32.862Z,19.70
2018-10-05T10:42:02.078Z,17.90
2018-10-05T10:44:31.291Z,21.40
2018-10-05T10:47:00.493Z,27.63
2018-10-05T10:49:29.681Z,19.50
2018-10-05T10:51:58.938Z,19.10
2018-10-05T10:54:28.096Z,22.20
2018-10-05T10:56:57.288Z,19.63
2018-10-05T10:59:26.492Z,15.80
2018-10-05T11:01:55.669Z,29.67
2018-10-05T11:04:24.888Z,24.07
2018-10-05T11:06:53.990Z,27.50
2018-10-05T11:09:23.146Z,22.00
2018-10-05T11:11:52.333Z,14.67
2018-10-05T11:14:21.505Z,21.23
2018-10-05T11:16:50.734Z,26.93
2018-10-05T11:19:19.899Z,20.83
2018-10-05T11:21:49.221Z,25.77
2018-10-05T11:24:18.364Z,26.83
2018-10-05T11:26:47.557Z,23.23
2018-10-05T11:29:16.857Z,23.43
2018-10-05T11:31:46.040Z,21.53
2018-10-05T11:34:15.339Z,17.87
2018-10-05T11:36:46.118Z,19.60
2018-10-05T11:39:15.241Z,22.77
2018-10-05T11:41:44.450Z,18.40
2018-10-05T11:44:13.969Z,23.73
2018-10-05T11:46:43.102Z,18.43
2018-10-05T11:49:12.285Z,20.40
2018-10-05T11:51:41.517Z,16.43
2018-10-05T11:54:10.686Z,22.20
2018-10-05T11:56:40.681Z,21.00
2018-10-05T11:59:09.878Z,19.57
2018-10-05T12:01:39.230Z,23.23
2018-10-05T12:04:08.385Z,18.63
2018-10-05T12:06:37.642Z,16.60
2018-10-05T12:09:08.322Z,15.30
2018-10-05T12:11:38.792Z,23.03
2018-10-05T12:14:08.045Z,18.93
2018-10-05T12:16:37.222Z,29.30
2018-10-05T12:19:07.582Z,15.40
2018-10-05T12:21:36.705Z,25.97
2018-10-05T12:24:05.873Z,13.80
2018-10-05T12:26:35.622Z,17.90
2018-10-05T12:29:04.806Z,17.60
2018-10-05T12:31:34.016Z,19.60
2018-10-05T12:34:04.133Z,14.77
2018-10-05T12:36:33.304Z,28.20
2018-10-05T12:39:02.616Z,14.90
2018-10-05T12:41:31.790Z,19.00
2018-10-05T12:44:00.926Z,24.80
2018-10-05T12:46:30.390Z,17.30
2018-10-05T12:48:59.605Z,17.37
2018-10-05T12:51:28.824Z,21.57
2018-10-05T12:53:58.045Z,22.03
2018-10-05T12:56:27.349Z,24.33
2018-10-05T12:58:58.182Z,18.83
2018-10-05T13:01:27.333Z,16.70
2018-10-05T13:03:56.717Z,15.30
2018-10-05T13:06:25.893Z,17.67
2018-10-05T13:08:55.250Z,14.80
2018-10-05T13:11:24.526Z,12.83
2018-10-05T13:13:53.836Z,16.43
2018-10-05T13:16:23.065Z,12.97
2018-10-05T13:18:52.289Z,14.43
2018-10-05T13:21:21.478Z,13.80
2018-10-05T13:23:50.652Z,10.53
2018-10-05T13:26:22.801Z,17.10
2018-10-05T13:28:52.066Z,17.83
2018-10-05T13:31:21.417Z,11.83
2018-10-05T13:33:50.596Z,18.83
2018-10-05T13:36:19.828Z,21.23
2018-10-05T13:38:49.249Z,12.63
2018-10-05T13:41:18.387Z,13.33
2018-10-05T13:43:47.934Z,16.17
2018-10-05T13:46:17.188Z,19.10
2018-10-05T13:48:46.398Z,11.90
2018-10-05T13:51:15.551Z,24.53
2018-10-05T13:53:45.300Z,11.60
2018-10-05T13:56:16.088Z,13.00
2018-10-05T13:58:45.582Z,10.10
2018-10-05T14:01:15.571Z,23.13
2018-10-05T14:03:44.709Z,11.10
2018-10-05T14:06:13.934Z,13.63
2018-10-05T14:08:43.169Z,16.80
2018-10-05T14:11:12.486Z,13.53
2018-10-05T14:13:41.684Z,18.47
2018-10-05T14:16:10.851Z,15.83
2018-10-05T14:18:40.078Z,11.33
2018-10-05T14:21:09.458Z,17.83
2018-10-05T14:23:38.619Z,8.30
2018-10-05T14:26:08.009Z,13.37
2018-10-05T14:28:37.220Z,12.30
2018-10-05T14:31:06.926Z,12.17
2018-10-05T14:33:36.174Z,9.40
2018-10-05T14:36:05.419Z,9.30
2018-10-05T14:38:34.612Z,20.43
2018-10-05T14:41:03.889Z,8.13
2018-10-05T14:43:33.079Z,14.47
2018-10-05T14:46:02.778Z,8.93
2018-10-05T14:48:31.907Z,20.67
2018-10-05T14:51:01.116Z,17.50
2018-10-05T14:53:30.293Z,19.90
2018-10-05T14:55:59.477Z,14.50
2018-10-05T14:58:28.671Z,8.57
2018-10-05T15:00:57.908Z,6.77
2018-10-05T15:03:27.044Z,11.53
2018-10-05T15:05:56.208Z,13.03
2018-10-05T15:08:25.409Z,12.33
2018-10-05T15:10:54.567Z,8.20
2018-10-05T15:13:23.828Z,9.90
2018-10-05T15:15:53.070Z,15.50
2018-10-05T15:18:22.341Z,19.93
2018-10-05T15:20:51.495Z,13.20
2018-10-05T15:23:20.726Z,20.57
2018-10-05T15:25:49.893Z,11.77
2018-10-05T15:28:19.103Z,15.53
2018-10-05T15:30:48.250Z,8.10
2018-10-05T15:33:17.773Z,11.33
2018-10-05T15:35:46.934Z,11.70
2018-10-05T15:38:16.143Z,6.50
2018-10-05T15:40:45.572Z,8.60
2018-10-05T15:43:14.771Z,18.70
2018-10-05T15:45:43.955Z,11.83
2018-10-05T15:48:13.141Z,17.73
2018-10-05T15:50:42.380Z,16.93
2018-10-05T15:53:11.676Z,13.67
2018-10-05T15:55:41.961Z,12.60
2018-10-05T15:58:11.162Z,12.87
2018-10-05T16:00:40.505Z,6.87
2018-10-05T16:03:09.664Z,14.47
2018-10-05T16:05:38.901Z,19.63
2018-10-05T16:08:08.140Z,17.30
2018-10-05T16:10:37.400Z,5.77
2018-10-05T16:13:07.168Z,16.83
2018-10-05T16:15:36.386Z,5.67
2018-10-05T16:18:05.689Z,6.70
2018-10-05T16:20:36.321Z,8.50
2018-10-05T16:23:05.578Z,12.13
2018-10-05T16:25:34.766Z,9.53
2018-10-05T16:28:03.949Z,5.93
2018-10-05T16:30:33.128Z,8.23
2018-10-05T16:33:02.245Z,6.50
2018-10-05T16:35:31.421Z,15.87
2018-10-05T16:38:00.600Z,10.10
2018-10-05T16:40:29.744Z,5.73
2018-10-05T16:42:59.190Z,13.00
2018-10-05T16:45:28.397Z,7.97
2018-10-05T16:47:57.613Z,16.53
2018-10-05T16:50:26.815Z,13.33
2018-10-05T16:52:56.182Z,8.93
2018-10-05T16:55:25.339Z,7.80
2018-10-05T16:58:02.670Z,11.60
2018-10-05T17:00:34.977Z,13.73
2018-10-05T17:03:05.641Z,10.03
2018-10-05T17:05:35.120Z,8.80
2018-10-05T17:08:04.891Z,8.97
2018-10-05T17:10:34.423Z,10.50
2018-10-05T17:13:03.478Z,8.87
2018-10-05T17:15:33.298Z,12.87
2018-10-05T17:18:03.020Z,8.70
2018-10-05T17:20:33.413Z,10.17
2018-10-05T17:23:02.757Z,6.83
2018-10-05T17:25:32.466Z,17.87
2018-10-05T17:28:01.773Z,11.70
2018-10-05T17:30:33.271Z,9.50
2018-10-05T17:33:02.687Z,8.60
2018-10-05T17:35:31.877Z,7.13
2018-10-05T17:38:01.173Z,12.33
2018-10-05T17:40:31.896Z,12.90
2018-10-05T17:43:01.106Z,8.47
2018-10-05T17:45:30.271Z,11.87
2018-10-05T17:48:00.208Z,15.47
2018-10-05T17:50:29.378Z,12.63
2018-10-05T17:53:00.392Z,17.00
2018-10-05T17:55:31.110Z,8.40
2018-10-05T17:58:00.398Z,14.77
2018-10-05T18:03:18.296Z,14.13
2018-10-05T18:05:50.148Z,9.67
2018-10-05T18:08:31.200Z,12.60
2018-10-05T18:11:15.093Z,16.40
2018-10-05T18:13:49.142Z,9.20
2018-10-05T18:16:38.307Z,11.70
2018-10-05T18:19:14.345Z,12.90
2018-10-05T18:21:43.965Z,13.10
2018-10-05T18:24:13.325Z,17.97
2018-10-05T18:26:42.706Z,13.80
2018-10-05T18:29:12.071Z,9.90
2018-10-05T18:31:41.531Z,8.90
2018-10-05T18:34:10.967Z,8.80
2018-10-05T18:36:40.234Z,10.07
2018-10-05T18:39:10.900Z,9.03
2018-10-05T18:41:40.339Z,8.10
2018-10-05T18:44:09.911Z,15.23
2018-10-05T18:46:43.341Z,11.00
2018-10-05T18:49:13.070Z,10.67
2018-10-05T18:51:42.251Z,13.13
2018-10-05T18:54:11.661Z,10.90
2018-10-05T18:56:52.057Z,16.03
2018-10-05T18:59:21.563Z,10.60
2018-10-05T19:01:50.680Z,13.90
2018-10-05T19:04:20.119Z,9.27
2018-10-05T19:06:50.273Z,10.93
2018-10-05T19:09:19.625Z,15.30
2018-10-05T19:11:48.838Z,10.17
2018-10-05T19:14:18.076Z,10.40
2018-10-05T19:16:47.204Z,11.40
2018-10-05T19:19:16.359Z,15.40
2018-10-05T19:21:45.569Z,17.50
2018-10-05T19:24:15.157Z,15.63
2018-10-05T19:26:44.514Z,15.87
2018-10-05T19:29:13.600Z,18.13
2018-10-05T19:31:42.806Z,14.67
2018-10-05T19:34:11.954Z,12.23
2018-10-05T19:36:41.163Z,11.37
2018-10-05T19:39:11.514Z,19.60
2018-10-05T19:41:41.233Z,11.83
2018-10-05T19:44:12.669Z,14.83
2018-10-05T19:46:41.913Z,13.27
2018-10-05T19:49:11.118Z,10.83
2018-10-05T19:51:40.253Z,13.67
2018-10-05T19:54:09.405Z,16.70
2018-10-05T19:56:38.564Z,11.50
2018-10-05T19:59:09.034Z,11.73
2018-10-05T20:01:38.290Z,10.90
2018-10-05T20:04:07.458Z,14.57
2018-10-05T20:06:36.715Z,15.53
2018-10-05T20:09:07.856Z,16.87
2018-10-05T20:11:37.468Z,21.77
2018-10-05T20:14:06.631Z,17.83
2018-10-05T20:16:35.837Z,21.63
2018-10-05T20:19:05.094Z,20.33
2018-10-05T20:21:34.325Z,16.77
2018-10-05T20:24:04.449Z,17.53
2018-10-05T20:26:33.589Z,14.80
2018-10-05T20:29:02.913Z,18.30
2018-10-05T20:31:32.876Z,20.27
2018-10-05T20:34:03.679Z,13.63
2018-10-05T20:36:32.977Z,17.27
2018-10-05T20:39:02.046Z,16.70
2018-10-05T20:41:31.262Z,17.13
2018-10-05T20:44:00.463Z,28.57
2018-10-05T20:46:30.797Z,17.80
2018-10-05T20:49:00.017Z,20.93
2018-10-05T20:51:29.338Z,21.20
2018-10-05T20:54:01.545Z,17.53
2018-10-05T20:56:31.535Z,18.83
2018-10-05T20:59:02.662Z,28.93
2018-10-05T21:01:32.290Z,30.00
2018-10-05T21:04:01.867Z,17.40
2018-10-05T21:06:31.787Z,24.10
2018-10-05T21:09:02.067Z,26.73
2018-10-05T21:11:33.539Z,19.60
2018-10-05T21:14:06.487Z,16.10
2018-10-05T21:16:37.608Z,26.23
2018-10-05T21:19:08.904Z,17.00
2018-10-05T21:21:39.348Z,20.30
2018-10-05T21:24:08.653Z,24.97
2018-10-05T21:26:41.118Z,28.03
2018-10-05T21:29:19.432Z,22.23
2018-10-05T21:31:49.233Z,22.43
2018-10-05T21:34:18.581Z,16.63
2018-10-05T21:36:48.877Z,19.37
2018-10-05T21:39:18.418Z,19.27
2018-10-05T21:41:47.887Z,23.40
2018-10-05T21:44:22.563Z,24.07
2018-10-05T21:46:52.735Z,31.03
2018-10-05T21:49:22.165Z,23.90
2018-10-05T21:51:51.486Z,21.63
2018-10-05T21:54:20.860Z,25.00
2018-10-05T21:56:55.729Z,19.40
2018-10-05T21:59:25.042Z,23.80
2018-10-05T22:01:54.508Z,23.07
2018-10-05T22:04:30.899Z,29.97
2018-10-05T22:07:00.262Z,24.17
2018-10-05T22:09:29.876Z,21.63
2018-10-05T22:12:04.039Z,20.63
2018-10-05T22:14:33.301Z,23.70
2018-10-05T22:17:02.737Z,20.30
2018-10-05T22:19:32.875Z,21.37
2018-10-05T22:22:02.148Z,23.97
2018-10-05T22:24:36.772Z,24.87
2018-10-05T22:27:09.705Z,18.30
2018-10-05T22:29:39.407Z,23.63
2018-10-05T22:32:08.936Z,18.53
2018-10-05T22:34:45.339Z,23.87
2018-10-05T22:37:14.842Z,28.83
2018-10-05T22:39:44.296Z,24.67
2018-10-05T22:42:13.663Z,28.80
2018-10-05T22:44:42.970Z,18.00
2018-10-05T22:47:12.235Z,22.00
2018-10-05T22:49:41.391Z,24.40
2018-10-05T22:52:10.851Z,22.17
2018-10-05T22:54:40.305Z,20.40
2018-10-05T22:57:09.595Z,17.53
2018-10-05T22:59:38.800Z,22.40
2018-10-05T23:02:08.001Z,19.73
2018-10-05T23:04:37.227Z,27.40
2018-10-05T23:07:06.760Z,26.50
2018-10-05T23:09:35.996Z,24.27
2018-10-05T23:12:05.273Z,33.87
2018-10-05T23:14:34.563Z,20.07
2018-10-05T23:17:03.969Z,20.27
2018-10-05T23:19:33.602Z,24.17
2018-10-05T23:22:02.999Z,19.63
2018-10-05T23:24:32.183Z,22.13
2018-10-05T23:27:01.350Z,27.47
2018-10-05T23:29:30.575Z,34.33
2018-10-05T23:31:59.772Z,17.30
2018-10-05T23:34:29.001Z,22.17
2018-10-05T23:36:58.303Z,21.40
2018-10-05T23:39:27.567Z,23.03
2018-10-05T23:41:57.005Z,20.23
2018-10-05T23:44:26.244Z,20.33
2018-10-05T23:46:55.486Z,32.93
2018-10-05T23:49:24.687Z,20.30
2018-10-05T23:51:53.985Z,20.10
2018-10-05T23:54:23.197Z,21.53
2018-10-05T23:56:52.385Z,29.87
2018-10-05T23:59:21.608Z,23.63
